Time;durP1;ratioP1;P1;durP2;ratioP2;P2;SDS_P1;SDS_P2;PMS_P1;PMS_P2;Temp;Humidity;BMP_temperature;BMP_pressure;BME280_temperature;BME280_humidity;BME280_pressure;Samples;Min_cycle;Max_cycle;Signal;HPM_P1;HPM_P2
2021/12/17 00:00:25;;;;;;;12.00;6.03;;;;;;;;;;5088783;28;20209;-65
2021/12/17 00:06:11;;;;;;;12.47;5.90;;;;;;;;;;5087231;28;20294;-65
2021/12/17 00:08:39;;;;;;;15.67;7.00;;;;;;;;;;5088920;28;20222;-65
2021/12/17 00:11:06;;;;;;;10.63;6.57;;;;;;;;;;5087839;28;20210;-65
2021/12/17 00:13:33;;;;;;;12.27;6.30;;;;;;;;;;5089168;28;20202;-65
2021/12/17 00:16:01;;;;;;;10.83;6.33;;;;;;;;;;5089441;28;20214;-65
2021/12/17 00:18:35;;;;;;;12.77;6.93;;;;;;;;;;5088991;28;20226;-65
2021/12/17 00:48:46;;;;;;;13.20;6.90;;;;;;;;;;5091198;28;20248;-65
2021/12/17 00:54:19;;;;;;;10.97;6.87;;;;;;;;;;5027748;28;20227;-65
2021/12/17 00:56:46;;;;;;;12.10;6.50;;;;;;;;;;5080507;28;20217;-65
2021/12/17 00:59:13;;;;;;;12.43;6.53;;;;;;;;;;5082154;28;20226;-65
2021/12/17 01:01:40;;;;;;;16.80;7.20;;;;;;;;;;5090692;28;20566;-65
2021/12/17 01:04:08;;;;;;;10.93;6.53;;;;;;;;;;5090864;28;20199;-65
2021/12/17 01:06:35;;;;;;;11.23;6.70;;;;;;;;;;5091393;28;20214;-65
2021/12/17 01:09:03;;;;;;;14.53;7.07;;;;;;;;;;5091278;28;20599;-65
2021/12/17 01:11:31;;;;;;;10.67;6.47;;;;;;;;;;5091163;28;20209;-65
2021/12/17 01:13:58;;;;;;;13.63;6.90;;;;;;;;;;5088653;28;20272;-65
2021/12/17 01:16:25;;;;;;;14.93;7.93;;;;;;;;;;5090886;28;20664;-64
2021/12/17 01:19:02;;;;;;;8.73;6.23;;;;;;;;;;5090929;28;20222;-64
2021/12/17 01:21:37;;;;;;;12.13;6.83;;;;;;;;;;5091011;28;20202;-64
2021/12/17 01:24:28;;;;;;;15.17;7.03;;;;;;;;;;5091041;28;20742;-64
2021/12/17 01:35:24;;;;;;;12.97;6.53;;;;;;;;;;5027427;28;20219;-65
2021/12/17 01:43:24;;;;;;;11.80;6.50;;;;;;;;;;5063568;28;20213;-65
2021/12/17 01:45:51;;;;;;;18.43;6.90;;;;;;;;;;5089735;28;20205;-65
2021/12/17 01:48:25;;;;;;;11.10;6.87;;;;;;;;;;5089807;28;20203;-65
2021/12/17 01:56:38;;;;;;;11.83;6.57;;;;;;;;;;5090019;28;20287;-65
2021/12/17 01:59:22;;;;;;;10.67;7.10;;;;;;;;;;5076847;28;20226;-65
2021/12/17 02:01:50;;;;;;;14.00;7.20;;;;;;;;;;5089942;28;20214;-66
2021/12/17 02:04:17;;;;;;;11.37;7.17;;;;;;;;;;5090482;28;20205;-65
2021/12/17 02:06:45;;;;;;;9.63;6.93;;;;;;;;;;5089871;28;20206;-65
2021/12/17 02:09:32;;;;;;;15.20;8.23;;;;;;;;;;5089927;28;20198;-65
2021/12/17 02:12:19;;;;;;;13.57;7.07;;;;;;;;;;5089743;28;20815;-64
2021/12/17 02:21:15;;;;;;;12.27;6.83;;;;;;;;;;5089599;28;20230;-65
2021/12/17 02:29:54;;;;;;;12.30;7.40;;;;;;;;;;5089097;28;20216;-65
2021/12/17 02:32:24;;;;;;;13.10;7.67;;;;;;;;;;5089402;28;20213;-65
2021/12/17 02:35:05;;;;;;;11.43;6.77;;;;;;;;;;5088938;28;20561;-64
2021/12/17 02:37:34;;;;;;;8.67;6.17;;;;;;;;;;5089533;28;20199;-64
2021/12/17 02:40:16;;;;;;;10.97;6.07;;;;;;;;;;5089344;28;20228;-64
2021/12/17 02:45:32;;;;;;;15.37;7.30;;;;;;;;;;5078754;28;20616;-65
2021/12/17 02:48:00;;;;;;;14.00;7.63;;;;;;;;;;5089933;28;20665;-65
2021/12/17 02:50:28;;;;;;;15.43;7.97;;;;;;;;;;5088509;28;20229;-65
2021/12/17 02:52:56;;;;;;;13.00;7.30;;;;;;;;;;5089792;28;20202;-65
2021/12/17 02:55:24;;;;;;;12.23;6.63;;;;;;;;;;5089247;28;20648;-65
2021/12/17 02:57:52;;;;;;;15.77;7.40;;;;;;;;;;5089494;28;20204;-65
2021/12/17 03:00:19;;;;;;;11.90;7.50;;;;;;;;;;5088136;28;20643;-64
2021/12/17 03:02:48;;;;;;;15.93;8.67;;;;;;;;;;5089417;28;20217;-65
2021/12/17 03:05:15;;;;;;;17.63;8.47;;;;;;;;;;5089659;28;20210;-65
2021/12/17 03:07:45;;;;;;;17.40;9.10;;;;;;;;;;5089396;28;20215;-65
2021/12/17 03:10:14;;;;;;;17.10;9.00;;;;;;;;;;5089876;28;20187;-65
2021/12/17 03:12:46;;;;;;;11.17;7.13;;;;;;;;;;5089014;28;20651;-65
2021/12/17 03:15:21;;;;;;;12.10;6.83;;;;;;;;;;5089293;28;20664;-65
2021/12/17 03:23:30;;;;;;;12.83;6.97;;;;;;;;;;5076042;28;20218;-64
2021/12/17 03:25:57;;;;;;;11.00;6.83;;;;;;;;;;5089183;28;20198;-65
2021/12/17 03:28:26;;;;;;;10.80;6.73;;;;;;;;;;5079954;28;20339;-65
2021/12/17 03:30:53;;;;;;;10.30;7.00;;;;;;;;;;5089052;28;20260;-65
2021/12/17 03:33:21;;;;;;;7.77;5.53;;;;;;;;;;5088597;28;20736;-65
2021/12/17 03:35:48;;;;;;;10.80;6.20;;;;;;;;;;5089107;28;20203;-65
2021/12/17 03:38:15;;;;;;;16.60;7.23;;;;;;;;;;5088312;28;20202;-65
2021/12/17 03:40:44;;;;;;;9.87;6.27;;;;;;;;;;5089492;28;20226;-65
2021/12/17 03:43:13;;;;;;;17.57;6.27;;;;;;;;;;5088768;28;20201;-65
2021/12/17 03:45:41;;;;;;;13.23;6.63;;;;;;;;;;5088709;28;20664;-65
2021/12/17 03:48:09;;;;;;;13.83;7.27;;;;;;;;;;5088489;28;20255;-65
2021/12/17 03:50:37;;;;;;;7.97;6.33;;;;;;;;;;5088816;28;20209;-64
2021/12/17 03:53:04;;;;;;;11.87;5.87;;;;;;;;;;5089340;28;20207;-65
2021/12/17 03:55:31;;;;;;;10.13;5.20;;;;;;;;;;5089171;28;20214;-65
2021/12/17 03:58:00;;;;;;;9.60;6.13;;;;;;;;;;5089038;28;20221;-65
2021/12/17 04:00:27;;;;;;;8.77;5.07;;;;;;;;;;5088374;28;20229;-65
2021/12/17 04:02:56;;;;;;;10.30;5.70;;;;;;;;;;5089186;28;20256;-65
2021/12/17 04:05:23;;;;;;;8.33;5.50;;;;;;;;;;5088687;28;20210;-65
2021/12/17 04:07:50;;;;;;;7.37;5.50;;;;;;;;;;5088932;28;20206;-65
2021/12/17 04:10:18;;;;;;;7.60;5.60;;;;;;;;;;5090807;28;20202;-64
2021/12/17 04:12:53;;;;;;;11.37;5.97;;;;;;;;;;5093085;28;20206;-65
2021/12/17 04:15:29;;;;;;;7.47;5.40;;;;;;;;;;5092396;28;20205;-65
2021/12/17 04:17:58;;;;;;;7.77;5.63;;;;;;;;;;5092653;28;20202;-64
2021/12/17 04:20:25;;;;;;;9.07;5.10;;;;;;;;;;5092416;28;20226;-64
2021/12/17 04:22:53;;;;;;;11.83;5.60;;;;;;;;;;5091629;28;20357;-64
2021/12/17 04:25:20;;;;;;;10.90;5.60;;;;;;;;;;5092459;28;20306;-65
2021/12/17 04:27:47;;;;;;;8.53;6.17;;;;;;;;;;5092153;28;20222;-65
2021/12/17 04:30:14;;;;;;;10.83;5.97;;;;;;;;;;5092270;28;20605;-65
2021/12/17 04:32:42;;;;;;;14.20;6.10;;;;;;;;;;5092052;28;20256;-65
2021/12/17 04:35:10;;;;;;;10.00;5.67;;;;;;;;;;5092603;28;20206;-65
2021/12/17 04:37:37;;;;;;;12.07;6.50;;;;;;;;;;5092507;28;20997;-65
2021/12/17 04:40:04;;;;;;;8.23;5.47;;;;;;;;;;5092293;28;20218;-65
2021/12/17 04:42:40;;;;;;;11.53;7.07;;;;;;;;;;5091695;28;20251;-65
2021/12/17 04:45:07;;;;;;;9.70;6.27;;;;;;;;;;5091618;28;20201;-65
2021/12/17 04:58:51;;;;;;;9.70;6.30;;;;;;;;;;5081266;28;20209;-65
2021/12/17 05:01:18;;;;;;;9.07;5.23;;;;;;;;;;5090764;28;20738;-64
2021/12/17 05:03:45;;;;;;;8.77;5.80;;;;;;;;;;5091271;28;20665;-64
2021/12/17 05:06:14;;;;;;;8.97;5.63;;;;;;;;;;5090674;28;20251;-65
2021/12/17 05:08:41;;;;;;;7.23;5.70;;;;;;;;;;5091012;28;20297;-65
2021/12/17 05:11:28;;;;;;;9.37;5.67;;;;;;;;;;5091284;28;20321;-64
2021/12/17 05:19:30;;;;;;;8.40;4.97;;;;;;;;;;5036817;28;20222;-65
2021/12/17 05:22:04;;;;;;;8.57;5.70;;;;;;;;;;5089659;28;20234;-65
2021/12/17 05:24:31;;;;;;;7.53;5.37;;;;;;;;;;5084820;28;20271;-65
2021/12/17 05:26:58;;;;;;;9.10;4.97;;;;;;;;;;5083851;28;20203;-64
2021/12/17 05:29:25;;;;;;;7.90;5.10;;;;;;;;;;5090998;28;20195;-65
2021/12/17 05:31:52;;;;;;;8.43;5.17;;;;;;;;;;5090851;28;20749;-65
2021/12/17 05:34:19;;;;;;;6.67;5.17;;;;;;;;;;5090694;28;20230;-65
2021/12/17 05:36:46;;;;;;;10.93;5.87;;;;;;;;;;5090804;28;20274;-65
2021/12/17 05:39:15;;;;;;;8.07;5.10;;;;;;;;;;5090977;28;20234;-65
2021/12/17 05:41:42;;;;;;;8.90;5.27;;;;;;;;;;5090312;28;20260;-64
2021/12/17 05:44:09;;;;;;;8.17;5.00;;;;;;;;;;5088979;28;20221;-65
2021/12/17 05:46:48;;;;;;;5.57;5.00;;;;;;;;;;5088445;28;20206;-65
2021/12/17 05:49:15;;;;;;;11.67;5.37;;;;;;;;;;5090979;28;20617;-65
2021/12/17 05:51:43;;;;;;;6.20;3.87;;;;;;;;;;5090412;28;20210;-65
2021/12/17 05:54:10;;;;;;;6.23;4.73;;;;;;;;;;5090135;28;20222;-65
2021/12/17 05:56:38;;;;;;;7.13;4.67;;;;;;;;;;5089994;28;20206;-65
2021/12/17 05:59:05;;;;;;;7.33;4.43;;;;;;;;;;5090183;28;20229;-65
2021/12/17 06:01:32;;;;;;;10.50;4.10;;;;;;;;;;5089101;28;20224;-65
2021/12/17 06:03:59;;;;;;;10.53;5.57;;;;;;;;;;5090343;28;20213;-64
2021/12/17 06:06:27;;;;;;;5.93;4.60;;;;;;;;;;5089507;28;20202;-64
2021/12/17 06:08:54;;;;;;;8.20;4.80;;;;;;;;;;5090409;28;20210;-64
2021/12/17 06:11:21;;;;;;;5.67;4.37;;;;;;;;;;5085792;28;20213;-64
2021/12/17 06:13:50;;;;;;;6.27;4.77;;;;;;;;;;5089745;28;20205;-65
2021/12/17 06:16:17;;;;;;;7.17;4.60;;;;;;;;;;5090042;28;20210;-64
2021/12/17 06:18:47;;;;;;;9.73;5.10;;;;;;;;;;5090555;28;20209;-64
2021/12/17 06:21:14;;;;;;;7.37;4.57;;;;;;;;;;5084883;28;20225;-64
2021/12/17 06:23:46;;;;;;;7.53;4.97;;;;;;;;;;5089999;28;20210;-64
2021/12/17 06:26:13;;;;;;;5.20;4.30;;;;;;;;;;5085708;28;20213;-64
2021/12/17 06:28:40;;;;;;;6.27;4.87;;;;;;;;;;5089993;28;20220;-65
2021/12/17 06:31:09;;;;;;;7.23;4.27;;;;;;;;;;5088581;28;20237;-64
2021/12/17 06:33:36;;;;;;;7.80;5.27;;;;;;;;;;5083250;28;20219;-63
2021/12/17 06:36:03;;;;;;;9.00;4.50;;;;;;;;;;5089102;28;20206;-65
2021/12/17 06:38:30;;;;;;;4.77;3.57;;;;;;;;;;5089751;28;20214;-64
2021/12/17 06:40:58;;;;;;;6.93;4.37;;;;;;;;;;5089655;28;20221;-67
2021/12/17 06:43:32;;;;;;;9.33;5.27;;;;;;;;;;5089401;28;20210;-64
2021/12/17 06:46:13;;;;;;;9.10;5.90;;;;;;;;;;5088887;28;20202;-65
2021/12/17 06:48:42;;;;;;;14.60;8.03;;;;;;;;;;5081766;28;20283;-64
2021/12/17 06:59:37;;;;;;;6.53;4.47;;;;;;;;;;5070525;28;20787;-64
2021/12/17 07:08:42;;;;;;;23.37;12.00;;;;;;;;;;5088758;28;20336;-64
2021/12/17 07:10:45;;;;;;;13.73;8.20;;;;;;;;;;5088628;28;20212;-65
2021/12/17 07:21:38;;;;;;;5.63;3.83;;;;;;;;;;5088993;28;20236;-64
2021/12/17 07:32:39;;;;;;;6.00;4.83;;;;;;;;;;5088902;28;20198;-64
2021/12/17 07:40:42;;;;;;;6.10;3.93;;;;;;;;;;5088746;28;20600;-65
2021/12/17 07:43:13;;;;;;;5.23;3.80;;;;;;;;;;5088748;28;20210;-65
2021/12/17 07:45:41;;;;;;;3.87;3.30;;;;;;;;;;5093783;28;20210;-65
2021/12/17 07:48:08;;;;;;;3.77;3.47;;;;;;;;;;5095361;28;20813;-64
2021/12/17 07:50:35;;;;;;;4.70;3.40;;;;;;;;;;5095168;28;20206;-64
2021/12/17 07:53:04;;;;;;;7.53;3.97;;;;;;;;;;5095331;28;20268;-64
2021/12/17 07:55:31;;;;;;;6.63;4.13;;;;;;;;;;5095128;28;20218;-64
2021/12/17 07:57:58;;;;;;;4.40;3.20;;;;;;;;;;5095117;28;20304;-64
2021/12/17 08:00:25;;;;;;;4.47;3.87;;;;;;;;;;5095277;28;20230;-68
2021/12/17 08:02:52;;;;;;;4.23;3.63;;;;;;;;;;5095177;28;20215;-65
2021/12/17 08:05:20;;;;;;;5.13;3.90;;;;;;;;;;5095073;28;20214;-64
2021/12/17 08:07:47;;;;;;;4.80;3.73;;;;;;;;;;5095351;28;20676;-65
2021/12/17 08:10:15;;;;;;;4.07;3.67;;;;;;;;;;5095274;28;20611;-65
2021/12/17 08:12:42;;;;;;;3.83;3.53;;;;;;;;;;5094409;28;20210;-65
2021/12/17 08:15:11;;;;;;;5.63;4.10;;;;;;;;;;5077289;28;20207;-65
2021/12/17 08:18:03;;;;;;;5.23;3.47;;;;;;;;;;5074896;28;20301;-65
2021/12/17 08:23:58;;;;;;;4.10;3.60;;;;;;;;;;5075177;28;20569;-65
2021/12/17 08:26:22;;;;;;;6.73;4.07;;;;;;;;;;5074445;28;20560;-65
2021/12/17 08:28:56;;;;;;;5.00;4.03;;;;;;;;;;5074743;28;20688;-65
2021/12/17 08:31:23;;;;;;;4.33;3.67;;;;;;;;;;5094027;28;20237;-65
2021/12/17 08:33:50;;;;;;;4.13;3.77;;;;;;;;;;5094540;28;20232;-65
2021/12/17 08:36:18;;;;;;;5.83;3.47;;;;;;;;;;5094564;28;20213;-65
2021/12/17 08:38:46;;;;;;;4.30;3.43;;;;;;;;;;5095066;28;20198;-64
2021/12/17 08:41:13;;;;;;;4.20;2.93;;;;;;;;;;5094656;28;20648;-65
2021/12/17 08:43:42;;;;;;;3.20;2.90;;;;;;;;;;5083836;28;20235;-65
2021/12/17 08:46:09;;;;;;;3.83;3.07;;;;;;;;;;5074521;28;20299;-64
2021/12/17 08:48:36;;;;;;;4.00;3.60;;;;;;;;;;5093625;28;20423;-65
2021/12/17 08:51:04;;;;;;;4.03;3.37;;;;;;;;;;5094283;28;20198;-65
2021/12/17 08:53:31;;;;;;;3.87;3.50;;;;;;;;;;5094658;28;20210;-64
2021/12/17 08:55:58;;;;;;;4.53;3.07;;;;;;;;;;5092458;28;20206;-64
2021/12/17 08:58:25;;;;;;;5.90;4.10;;;;;;;;;;5091241;28;20206;-64
2021/12/17 09:00:53;;;;;;;4.50;3.53;;;;;;;;;;5090804;28;20319;-65
2021/12/17 09:03:20;;;;;;;3.60;3.30;;;;;;;;;;5091108;28;20654;-65
2021/12/17 09:05:48;;;;;;;3.13;2.93;;;;;;;;;;5091120;28;20631;-64
2021/12/17 09:08:16;;;;;;;3.60;3.30;;;;;;;;;;5091367;28;20218;-64
2021/12/17 09:10:44;;;;;;;4.77;3.43;;;;;;;;;;5091120;28;20213;-64
2021/12/17 09:13:12;;;;;;;3.63;2.90;;;;;;;;;;5090900;28;20238;-65
2021/12/17 09:15:39;;;;;;;4.60;3.67;;;;;;;;;;5091004;28;20217;-64
2021/12/17 09:18:07;;;;;;;6.80;3.80;;;;;;;;;;5091038;28;20511;-65
2021/12/17 09:20:34;;;;;;;6.83;3.70;;;;;;;;;;5090001;28;20222;-65
2021/12/17 09:23:01;;;;;;;7.87;3.93;;;;;;;;;;5068950;28;20219;-64
2021/12/17 09:25:29;;;;;;;5.07;4.10;;;;;;;;;;5085127;28;20218;-65
2021/12/17 09:27:56;;;;;;;5.37;4.00;;;;;;;;;;5089817;28;20217;-64
2021/12/17 09:30:23;;;;;;;3.40;3.10;;;;;;;;;;5090615;28;20245;-64
2021/12/17 09:32:50;;;;;;;6.70;3.57;;;;;;;;;;5090533;28;20723;-64
2021/12/17 09:35:21;;;;;;;4.63;3.73;;;;;;;;;;5088869;28;20241;-64
2021/12/17 09:37:48;;;;;;;5.93;3.63;;;;;;;;;;5090425;28;20822;-64
2021/12/17 09:40:15;;;;;;;4.77;3.53;;;;;;;;;;5090041;28;20209;-65
2021/12/17 09:42:45;;;;;;;3.70;3.40;;;;;;;;;;5083361;28;20211;-65
2021/12/17 09:45:13;;;;;;;4.07;3.40;;;;;;;;;;5090376;28;20295;-64
2021/12/17 09:47:40;;;;;;;4.83;3.40;;;;;;;;;;5090128;28;20556;-64
2021/12/17 09:50:07;;;;;;;3.30;3.00;;;;;;;;;;5089266;28;20229;-63
2021/12/17 09:52:36;;;;;;;4.13;3.40;;;;;;;;;;5070283;28;20215;-64
2021/12/17 09:55:03;;;;;;;3.60;3.30;;;;;;;;;;5081976;28;20210;-63
2021/12/17 09:57:35;;;;;;;6.27;2.93;;;;;;;;;;5089961;28;20214;-63
2021/12/17 10:00:02;;;;;;;8.03;3.90;;;;;;;;;;5089634;28;20209;-64
2021/12/17 10:02:29;;;;;;;4.10;3.23;;;;;;;;;;5089942;28;20234;-63
2021/12/17 10:04:56;;;;;;;2.80;2.53;;;;;;;;;;5089311;28;20213;-64
2021/12/17 10:07:24;;;;;;;4.43;3.60;;;;;;;;;;5087167;28;20214;-64
2021/12/17 10:09:53;;;;;;;3.97;3.17;;;;;;;;;;5089312;28;20218;-63
2021/12/17 10:12:23;;;;;;;3.27;2.97;;;;;;;;;;5089724;28;20214;-63
2021/12/17 10:15:06;;;;;;;4.10;3.00;;;;;;;;;;5090027;28;20210;-64
2021/12/17 10:17:33;;;;;;;3.27;2.97;;;;;;;;;;5069602;28;20210;-62
2021/12/17 10:20:00;;;;;;;4.43;2.73;;;;;;;;;;5077582;28;20205;-63
2021/12/17 10:22:29;;;;;;;4.17;2.77;;;;;;;;;;5089997;28;20226;-63
2021/12/17 10:25:03;;;;;;;2.97;2.77;;;;;;;;;;5089680;28;20264;-63
2021/12/17 10:27:31;;;;;;;4.90;3.30;;;;;;;;;;5089636;28;20210;-63
2021/12/17 10:29:58;;;;;;;3.47;3.13;;;;;;;;;;5089907;28;20260;-62
2021/12/17 10:32:27;;;;;;;2.83;2.63;;;;;;;;;;5089196;28;20274;-63
2021/12/17 10:35:01;;;;;;;2.60;2.40;;;;;;;;;;5089837;28;20210;-62
2021/12/17 10:37:35;;;;;;;7.17;2.80;;;;;;;;;;5076262;28;20207;-63
2021/12/17 10:40:14;;;;;;;5.73;3.50;;;;;;;;;;5088977;28;20557;-63
2021/12/17 10:42:48;;;;;;;2.30;2.20;;;;;;;;;;5087679;28;20237;-62
2021/12/17 10:45:23;;;;;;;2.87;2.57;;;;;;;;;;5086226;28;20209;-63
2021/12/17 10:48:01;;;;;;;3.73;3.37;;;;;;;;;;5068951;28;20209;-64
2021/12/17 10:50:28;;;;;;;2.60;2.43;;;;;;;;;;5069296;28;20229;-64
2021/12/17 10:52:56;;;;;;;1.10;1.10;;;;;;;;;;5079168;28;20996;-63
2021/12/17 10:55:26;;;;;;;3.40;2.30;;;;;;;;;;5087607;28;20267;-63
2021/12/17 10:57:59;;;;;;;2.90;1.70;;;;;;;;;;5075876;28;20207;-63
2021/12/17 11:00:26;;;;;;;3.90;2.87;;;;;;;;;;5089105;28;20300;-63
2021/12/17 11:02:54;;;;;;;5.43;2.27;;;;;;;;;;5070349;28;20225;-63
2021/12/17 11:05:22;;;;;;;3.93;2.30;;;;;;;;;;5083743;28;20237;-63
2021/12/17 11:07:50;;;;;;;1.57;1.57;;;;;;;;;;5088851;28;20206;-63
2021/12/17 11:10:18;;;;;;;4.37;2.03;;;;;;;;;;5088941;28;20210;-63
2021/12/17 11:12:47;;;;;;;3.23;2.70;;;;;;;;;;5087353;28;20330;-63
2021/12/17 11:15:17;;;;;;;1.90;1.70;;;;;;;;;;5070882;28;20207;-62
2021/12/17 11:17:45;;;;;;;2.43;2.23;;;;;;;;;;5073098;28;20809;-63
2021/12/17 11:20:13;;;;;;;2.30;2.00;;;;;;;;;;5067763;28;20214;-63
2021/12/17 11:22:41;;;;;;;2.80;2.60;;;;;;;;;;5068282;28;20231;-62
2021/12/17 11:25:09;;;;;;;2.03;1.87;;;;;;;;;;5081041;28;20263;-62
2021/12/17 11:27:36;;;;;;;2.00;1.90;;;;;;;;;;5088530;28;20244;-62
2021/12/17 11:30:05;;;;;;;8.90;1.80;;;;;;;;;;5087709;28;20234;-63
2021/12/17 11:32:33;;;;;;;1.87;1.43;;;;;;;;;;5088306;28;20229;-63
2021/12/17 11:35:00;;;;;;;1.97;1.87;;;;;;;;;;5088757;28;20221;-64
2021/12/17 11:37:27;;;;;;;2.27;2.07;;;;;;;;;;5088600;28;20703;-64
2021/12/17 11:39:56;;;;;;;1.63;1.63;;;;;;;;;;5086022;28;20206;-64
2021/12/17 11:42:30;;;;;;;2.00;1.77;;;;;;;;;;5070378;28;20296;-64
2021/12/17 11:47:40;;;;;;;2.60;2.40;;;;;;;;;;5076044;28;20202;-63
2021/12/17 11:50:09;;;;;;;1.63;1.53;;;;;;;;;;5074166;28;20209;-63
2021/12/17 11:52:46;;;;;;;1.63;1.53;;;;;;;;;;5086325;28;20202;-62
2021/12/17 11:55:23;;;;;;;2.83;2.30;;;;;;;;;;5087496;28;20297;-62
2021/12/17 12:00:33;;;;;;;2.20;2.10;;;;;;;;;;5084584;28;20761;-64
2021/12/17 12:03:19;;;;;;;1.70;1.70;;;;;;;;;;5085668;28;20225;-64
2021/12/17 12:05:47;;;;;;;1.47;1.40;;;;;;;;;;5081472;28;20230;-64
2021/12/17 12:08:28;;;;;;;0.50;0.50;;;;;;;;;;5088278;28;20217;-64
2021/12/17 12:11:05;;;;;;;0.90;0.90;;;;;;;;;;5068180;28;20388;-64
2021/12/17 12:13:39;;;;;;;0.83;0.63;;;;;;;;;;5068367;28;20275;-63
2021/12/17 12:16:07;;;;;;;0.87;0.87;;;;;;;;;;5068344;28;20215;-63
2021/12/17 12:18:41;;;;;;;0.83;0.83;;;;;;;;;;5079862;28;20199;-63
2021/12/17 12:21:08;;;;;;;1.60;0.90;;;;;;;;;;5074091;28;20290;-64
2021/12/17 12:23:41;;;;;;;0.70;0.70;;;;;;;;;;5088360;28;20228;-64
2021/12/17 12:26:16;;;;;;;1.90;1.27;;;;;;;;;;5087989;28;20212;-63
2021/12/17 12:28:49;;;;;;;0.33;0.33;;;;;;;;;;5088401;28;20218;-64
2021/12/17 12:31:37;;;;;;;1.93;0.70;;;;;;;;;;5088766;28;20241;-64
2021/12/17 12:34:10;;;;;;;1.43;0.97;;;;;;;;;;5092214;28;20317;-64
2021/12/17 12:36:51;;;;;;;1.43;1.00;;;;;;;;;;5078759;28;20242;-64
2021/12/17 12:39:19;;;;;;;0.67;0.67;;;;;;;;;;5071496;28;20238;-64
2021/12/17 12:41:47;;;;;;;1.03;0.83;;;;;;;;;;5079735;28;20223;-65
2021/12/17 12:44:14;;;;;;;1.73;1.00;;;;;;;;;;5086432;28;20210;-65
2021/12/17 12:46:54;;;;;;;0.80;0.80;;;;;;;;;;5071707;28;20203;-64
2021/12/17 12:49:40;;;;;;;0.63;0.60;;;;;;;;;;5076451;28;20297;-64
2021/12/17 12:52:16;;;;;;;0.93;0.70;;;;;;;;;;5091321;28;20194;-64
2021/12/17 12:54:43;;;;;;;0.60;0.60;;;;;;;;;;5091353;28;20213;-64
2021/12/17 12:57:10;;;;;;;0.67;0.67;;;;;;;;;;5091426;28;20217;-63
2021/12/17 12:59:40;;;;;;;0.90;0.90;;;;;;;;;;5091353;28;20217;-64
2021/12/17 13:02:07;;;;;;;0.60;0.60;;;;;;;;;;5090827;28;20230;-64
2021/12/17 13:04:35;;;;;;;0.70;0.70;;;;;;;;;;5091142;28;20214;-64
2021/12/17 13:07:02;;;;;;;0.77;0.77;;;;;;;;;;5091249;28;20229;-64
2021/12/17 13:09:30;;;;;;;1.27;1.00;;;;;;;;;;5091272;28;20247;-64
2021/12/17 13:11:57;;;;;;;2.37;0.97;;;;;;;;;;5091021;28;20229;-64
2021/12/17 13:14:26;;;;;;;0.27;0.27;;;;;;;;;;5091047;28;20575;-65
2021/12/17 13:17:17;;;;;;;0.60;0.60;;;;;;;;;;5090814;28;20210;-64
2021/12/17 13:20:30;;;;;;;0.87;0.80;;;;;;;;;;5088706;28;20307;-65
2021/12/17 13:23:01;;;;;;;1.00;0.77;;;;;;;;;;5091058;28;20379;-66
2021/12/17 13:25:31;;;;;;;0.60;0.60;;;;;;;;;;5086975;28;20214;-64
2021/12/17 13:27:58;;;;;;;0.93;0.80;;;;;;;;;;5082490;28;20212;-66
2021/12/17 13:30:26;;;;;;;0.83;0.77;;;;;;;;;;5087923;28;20238;-64
2021/12/17 13:32:54;;;;;;;0.80;0.80;;;;;;;;;;5077092;28;20313;-64
2021/12/17 13:35:22;;;;;;;0.67;0.67;;;;;;;;;;5070423;28;20305;-64
2021/12/17 13:37:52;;;;;;;1.10;1.10;;;;;;;;;;5070272;28;20211;-64
2021/12/17 13:40:23;;;;;;;1.33;1.00;;;;;;;;;;5070333;28;20276;-64
2021/12/17 13:42:51;;;;;;;0.77;0.77;;;;;;;;;;5069622;28;20333;-64
2021/12/17 13:45:20;;;;;;;0.70;0.70;;;;;;;;;;5070209;28;20211;-64
2021/12/17 13:47:48;;;;;;;1.10;1.00;;;;;;;;;;5070150;28;20245;-64
2021/12/17 13:50:19;;;;;;;1.00;1.00;;;;;;;;;;5070296;28;20215;-64
2021/12/17 13:52:47;;;;;;;1.90;1.10;;;;;;;;;;5070453;28;20234;-64
2021/12/17 13:55:15;;;;;;;1.00;0.90;;;;;;;;;;5082478;28;20580;-64
2021/12/17 13:57:43;;;;;;;0.73;0.70;;;;;;;;;;5090837;28;20681;-64
2021/12/17 14:00:13;;;;;;;0.90;0.90;;;;;;;;;;5090900;28;20672;-65
2021/12/17 14:02:41;;;;;;;1.00;1.00;;;;;;;;;;5090664;28;20287;-65
2021/12/17 14:05:09;;;;;;;1.00;1.00;;;;;;;;;;5090521;28;20209;-67
2021/12/17 14:07:37;;;;;;;0.97;0.90;;;;;;;;;;5090582;28;20211;-64
2021/12/17 14:10:06;;;;;;;1.20;1.17;;;;;;;;;;5090735;28;20209;-64
2021/12/17 14:12:37;;;;;;;0.90;0.87;;;;;;;;;;5089764;28;20214;-65
2021/12/17 14:15:05;;;;;;;0.97;0.83;;;;;;;;;;5085599;28;20220;-65
2021/12/17 14:17:38;;;;;;;0.93;0.93;;;;;;;;;;5079573;28;20207;-66
2021/12/17 14:20:07;;;;;;;1.20;1.10;;;;;;;;;;5083777;28;20205;-67
2021/12/17 14:22:35;;;;;;;1.20;1.10;;;;;;;;;;5090320;28;20804;-65
2021/12/17 14:25:22;;;;;;;0.70;0.70;;;;;;;;;;5090093;28;20210;-65
2021/12/17 14:27:50;;;;;;;1.00;0.90;;;;;;;;;;5084326;28;20211;-64
2021/12/17 14:30:18;;;;;;;1.20;1.10;;;;;;;;;;5067485;28;20624;-64
2021/12/17 14:32:47;;;;;;;1.10;1.00;;;;;;;;;;5066076;28;20231;-64
2021/12/17 14:35:15;;;;;;;1.27;1.10;;;;;;;;;;5065812;28;20302;-64
2021/12/17 14:37:49;;;;;;;1.93;1.30;;;;;;;;;;5070567;28;20207;-64
2021/12/17 14:40:28;;;;;;;1.20;1.20;;;;;;;;;;5083106;28;20206;-64
2021/12/17 14:42:57;;;;;;;2.07;1.10;;;;;;;;;;5085840;28;20230;-64
2021/12/17 14:45:32;;;;;;;1.17;1.17;;;;;;;;;;5085936;28;20641;-64
2021/12/17 14:48:14;;;;;;;1.37;1.27;;;;;;;;;;5072391;28;20209;-64
2021/12/17 15:02:23;;;;;;;1.80;1.00;;;;;;;;;;5064360;28;20723;-65
2021/12/17 15:04:51;;;;;;;1.60;1.20;;;;;;;;;;5085145;28;20665;-64
2021/12/17 15:07:20;;;;;;;1.23;1.23;;;;;;;;;;5085349;28;20214;-63
2021/12/17 15:09:47;;;;;;;2.60;1.33;;;;;;;;;;5085332;28;20213;-65
2021/12/17 15:12:36;;;;;;;1.57;1.47;;;;;;;;;;5084067;28;20213;-65
2021/12/17 15:15:05;;;;;;;1.33;1.30;;;;;;;;;;5064975;28;20764;-64
2021/12/17 15:17:32;;;;;;;1.93;1.53;;;;;;;;;;5065499;28;20219;-64
2021/12/17 15:19:59;;;;;;;2.47;1.37;;;;;;;;;;5084060;28;20758;-63
2021/12/17 15:22:28;;;;;;;1.30;1.20;;;;;;;;;;5085046;28;20792;-64
2021/12/17 15:24:55;;;;;;;1.43;1.33;;;;;;;;;;5085166;28;20214;-64
2021/12/17 15:27:23;;;;;;;1.67;1.17;;;;;;;;;;5084781;28;20297;-64
2021/12/17 15:29:50;;;;;;;1.00;1.00;;;;;;;;;;5084695;28;20575;-65
2021/12/17 15:32:17;;;;;;;1.07;1.07;;;;;;;;;;5084197;28;20202;-63
2021/12/17 15:34:44;;;;;;;3.13;1.90;;;;;;;;;;5085071;28;20230;-65
2021/12/17 15:37:11;;;;;;;1.37;1.23;;;;;;;;;;5084865;28;20190;-64
2021/12/17 15:39:39;;;;;;;1.53;1.43;;;;;;;;;;5085232;28;20333;-66
2021/12/17 15:42:06;;;;;;;1.80;1.70;;;;;;;;;;5083634;28;20995;-66
2021/12/17 15:44:33;;;;;;;1.30;1.30;;;;;;;;;;5084120;28;20225;-65
2021/12/17 15:47:00;;;;;;;1.60;1.50;;;;;;;;;;5083152;28;20218;-66
2021/12/17 15:49:27;;;;;;;1.70;1.60;;;;;;;;;;5085733;28;20210;-66
2021/12/17 15:51:54;;;;;;;2.30;1.53;;;;;;;;;;5085081;28;20552;-67
2021/12/17 15:54:21;;;;;;;2.50;1.33;;;;;;;;;;5083644;28;20217;-65
2021/12/17 15:56:50;;;;;;;1.40;1.30;;;;;;;;;;5084347;28;20207;-66
2021/12/17 15:59:17;;;;;;;1.40;1.30;;;;;;;;;;5084653;28;20319;-63
2021/12/17 16:01:44;;;;;;;1.30;1.30;;;;;;;;;;5083757;28;20214;-66
2021/12/17 16:04:11;;;;;;;1.30;1.20;;;;;;;;;;5084823;28;20284;-66
2021/12/17 16:06:38;;;;;;;3.03;1.27;;;;;;;;;;5087312;28;20230;-66
2021/12/17 16:09:13;;;;;;;1.37;1.27;;;;;;;;;;5089013;28;20214;-64
2021/12/17 16:11:55;;;;;;;1.00;1.00;;;;;;;;;;5088737;28;20361;-64
2021/12/17 16:22:34;;;;;;;1.70;1.33;;;;;;;;;;5088219;28;20314;-66
2021/12/17 16:25:01;;;;;;;1.30;1.20;;;;;;;;;;5088791;28;20214;-68
2021/12/17 16:27:28;;;;;;;2.27;1.20;;;;;;;;;;5088760;28;20210;-66
2021/12/17 16:29:57;;;;;;;2.03;1.10;;;;;;;;;;5087897;28;20801;-67
2021/12/17 16:32:24;;;;;;;5.10;1.20;;;;;;;;;;5088042;28;20214;-66
2021/12/17 16:34:51;;;;;;;1.70;1.60;;;;;;;;;;5087677;28;20199;-66
2021/12/17 16:37:21;;;;;;;1.30;1.30;;;;;;;;;;5087998;28;20206;-65
2021/12/17 16:39:48;;;;;;;2.60;1.50;;;;;;;;;;5087851;28;20214;-66
2021/12/17 16:42:16;;;;;;;2.00;1.50;;;;;;;;;;5087812;28;20210;-66
2021/12/17 16:45:13;;;;;;;1.80;1.70;;;;;;;;;;5087652;28;20217;-64
2021/12/17 16:47:33;;;;;;;3.50;1.97;;;;;;;;;;5087791;28;20211;-65
2021/12/17 16:50:01;;;;;;;4.23;2.33;;;;;;;;;;5086960;28;20577;-66
2021/12/17 16:52:28;;;;;;;2.80;2.60;;;;;;;;;;5087485;28;20206;-66
2021/12/17 16:54:55;;;;;;;2.70;1.87;;;;;;;;;;5087070;28;20237;-66
2021/12/17 16:57:22;;;;;;;3.23;3.03;;;;;;;;;;5086645;28;20210;-66
2021/12/17 16:59:50;;;;;;;4.47;3.60;;;;;;;;;;5086098;28;20214;-67
2021/12/17 17:02:17;;;;;;;3.50;2.43;;;;;;;;;;5085385;28;20209;-65
2021/12/17 17:04:45;;;;;;;2.43;2.30;;;;;;;;;;5086599;28;20221;-65
2021/12/17 17:07:13;;;;;;;5.43;4.60;;;;;;;;;;5086295;28;20214;-66
2021/12/17 17:09:40;;;;;;;5.37;3.83;;;;;;;;;;5086814;28;20611;-65
2021/12/17 17:12:10;;;;;;;4.27;3.97;;;;;;;;;;5086941;28;20217;-66
2021/12/17 17:14:37;;;;;;;5.47;4.53;;;;;;;;;;5081710;28;20780;-65
2021/12/17 17:17:05;;;;;;;3.30;3.03;;;;;;;;;;5071746;28;20369;-65
2021/12/17 17:19:33;;;;;;;3.70;3.17;;;;;;;;;;5076407;28;20293;-65
2021/12/17 17:22:01;;;;;;;3.00;2.23;;;;;;;;;;5086346;28;20210;-64
2021/12/17 17:24:28;;;;;;;2.20;2.10;;;;;;;;;;5085103;28;20226;-65
2021/12/17 17:26:55;;;;;;;2.83;2.63;;;;;;;;;;5084367;28;20210;-66
2021/12/17 17:29:22;;;;;;;2.50;2.30;;;;;;;;;;5087503;28;20203;-66
2021/12/17 17:31:49;;;;;;;8.47;3.20;;;;;;;;;;5084441;28;20648;-63